Galesburg, MI (49053)

8:06 PM EDT on June 28, 2017 (GMT -0400)
Gull lake Sewer Authority | | Change Station

Elev 905 ft 42.37 °N, 85.40 °W | Updated 15 seconds ago

Mostly Cloudy
Mostly Cloudy
72.6 °F
Feels Like 76 °F
N
3.0
Wind Variable Wind from SSW
Gusts 7.0 mph

Today
High -- | Low -- °F
--% Chance of Precip.
Yesterday
High -- | Low -- °F
Precip. -- in
Pressure 29.87 in
Visibility 10.0 miles
Clouds Few 9000 ft
Mostly Cloudy 11000 ft
Heat Index 76 °F
Dew Point 57 °F
Humidity 58%
Rainfall 0.00 in
Snow Depth Not available.
6:07 AM 9:22 PM
Waxing Crescent, 30% visible
METAR KAZO 282353Z 17010G19KT 10SM FEW090 BKN110 24/10 A2987 RMK AO2 RAB2254E03 PRESFR SLP113 P0000 60000 T02390100 10244 20222 58015
Pressure 29.87 in
Visibility 10.0 miles
Clouds Few 9000 ft
Mostly Cloudy 11000 ft
Heat Index 76 °F
Dew Point 57 °F
Humidity 58%
Rainfall 0.00 in
Snow Depth Not available.
6:07 AM 9:22 PM
Waxing Crescent, 30% visible
METAR KAZO 282353Z 17010G19KT 10SM FEW090 BKN110 24/10 A2987 RMK AO2 RAB2254E03 PRESFR SLP113 P0000 60000 T02390100 10244 20222 58015

Get Severe Weather Alerts

Thanks for signing up!

Be on the lookout for a verification email in your inbox.

You'll start receiving the daily forecast at 6 AM.

×

10-Day Weather Forecast

Almanac

Astronomy

Jun. 28, 2017 Rise Set
Actual Time
Civil Twilight
Nautical Twilight
Astronomical Twilight
Moon
Length of Visible Light
Length of Day
Tomorrow will be .
, % of the Moon is Illuminated

Today's Extremes

State Highs State Lows

Community

WunderPhotos

Category 6

Welcome to Category 6. This is the collective home for Weather Underground's featured writeups by Dr. Jeff Masters (right), Bob Henson (left), Chris Burt, and other regular contributors.

Nearby

Air Quality

  Air Quality AQ Index Pollutant
Not available.

Snow Depth

Station Depth Elevation

Earthquake Activity

City Distance Mag. Time & Date
Minimum magnitude displayed is 2.5.

Coastal Water Temperatures

Place Temperature

Stations

Nearby Weather Stations

Station Location Temp. Windchill Dew Point Humidity Wind Precip. Elev Updated Type
                   

Watches & Warnings

There are currently no watches in effect.